Time;durP1;ratioP1;P1;durP2;ratioP2;P2;SDS_P1;SDS_P2;PMS_P1;PMS_P2;Temp;Humidity;BMP_temperature;BMP_pressure;BME280_temperature;BME280_humidity;BME280_pressure;Samples;Min_cycle;Max_cycle;Signal;HPM_P1;HPM_P2
2021/01/12 00:01:44;;;;;;;24.27;14.27;;;6.60;98.60;;;;;;4782708;29;20050;-85
2021/01/12 00:04:11;;;;;;;17.33;11.93;;;6.60;98.70;;;;;;4783585;29;20051;-84
2021/01/12 00:06:38;;;;;;;17.85;13.25;;;6.60;98.70;;;;;;4769727;29;20077;-84
2021/01/12 00:09:05;;;;;;;17.98;12.40;;;6.60;98.70;;;;;;4797876;29;20047;-83
2021/01/12 00:11:31;;;;;;;16.10;13.15;;;6.60;98.80;;;;;;4779574;29;20578;-84
2021/01/12 00:13:58;;;;;;;17.92;13.20;;;6.70;98.80;;;;;;4762839;29;20526;-84
2021/01/12 00:16:25;;;;;;;14.70;11.27;;;6.70;98.80;;;;;;4798493;29;20055;-83
2021/01/12 00:18:51;;;;;;;21.80;13.40;;;6.70;98.80;;;;;;4782404;29;20051;-83
2021/01/12 00:21:25;;;;;;;19.25;12.45;;;6.80;98.80;;;;;;4767054;29;20054;-83
2021/01/12 00:23:52;;;;;;;16.83;12.48;;;6.80;98.90;;;;;;4783582;29;20407;-84
2021/01/12 00:26:19;;;;;;;18.58;13.18;;;6.80;98.90;;;;;;4783081;29;20082;-80
2021/01/12 00:28:45;;;;;;;21.33;14.00;;;6.80;98.90;;;;;;4782397;29;20066;-81
2021/01/12 00:31:12;;;;;;;14.68;12.05;;;6.80;98.90;;;;;;4766897;29;20054;-81
2021/01/12 00:33:38;;;;;;;19.42;13.57;;;6.80;98.90;;;;;;4775243;29;20411;-81
2021/01/12 00:36:08;;;;;;;15.80;11.68;;;6.80;98.90;;;;;;4798590;29;20055;-81
2021/01/12 00:38:35;;;;;;;19.42;13.38;;;6.90;99.00;;;;;;4781691;29;20046;-81
2021/01/12 00:41:06;;;;;;;16.08;12.38;;;6.80;99.00;;;;;;4780886;29;20046;-84
2021/01/12 00:43:33;;;;;;;18.95;13.70;;;6.90;99.00;;;;;;4783691;29;20039;-84
2021/01/12 00:46:00;;;;;;;21.10;14.52;;;6.80;99.00;;;;;;4783635;29;20046;-84
2021/01/12 00:48:26;;;;;;;19.95;13.52;;;6.80;99.00;;;;;;4797675;29;20054;-85
2021/01/12 00:50:53;;;;;;;21.70;15.38;;;6.90;99.10;;;;;;4759636;29;20101;-86
2021/01/12 00:53:19;;;;;;;19.73;14.20;;;6.90;99.10;;;;;;4798481;29;20057;-84
2021/01/12 00:55:46;;;;;;;19.85;14.02;;;6.90;99.10;;;;;;4769877;29;20045;-85
2021/01/12 00:58:14;;;;;;;26.30;17.10;;;6.90;99.10;;;;;;4797406;29;20495;-86
2021/01/12 01:00:41;;;;;;;23.10;16.90;;;6.90;99.10;;;;;;4775815;29;20062;-80
2021/01/12 01:03:07;;;;;;;24.85;19.27;;;6.90;99.10;;;;;;4783235;29;20054;-80
2021/01/12 01:05:35;;;;;;;28.63;18.73;;;6.90;99.10;;;;;;4774389;29;20068;-80
2021/01/12 01:08:03;;;;;;;29.15;20.10;;;6.90;99.20;;;;;;4782823;29;20521;-80
2021/01/12 01:10:30;;;;;;;24.88;17.40;;;6.90;99.20;;;;;;4772687;29;20094;-80
2021/01/12 01:12:56;;;;;;;19.65;15.52;;;6.90;99.20;;;;;;4798906;29;20038;-80
2021/01/12 01:15:25;;;;;;;26.83;18.52;;;6.90;99.20;;;;;;4763589;29;20043;-80
2021/01/12 01:17:52;;;;;;;27.80;20.48;;;6.90;99.20;;;;;;4781733;29;20063;-80
2021/01/12 01:20:19;;;;;;;21.05;16.48;;;6.90;99.20;;;;;;4768912;29;20050;-80
2021/01/12 01:22:45;;;;;;;26.55;17.83;;;6.90;99.20;;;;;;4775500;29;20047;-86
2021/01/12 01:25:12;;;;;;;21.30;16.98;;;6.90;99.20;;;;;;4786993;29;20050;-85
2021/01/12 01:27:39;;;;;;;22.65;16.80;;;6.90;99.30;;;;;;4780492;29;20154;-86
2021/01/12 01:30:06;;;;;;;24.38;18.40;;;6.90;99.30;;;;;;4783977;29;20066;-85
2021/01/12 01:32:33;;;;;;;21.63;16.73;;;6.90;99.20;;;;;;4777378;29;20054;-86
2021/01/12 01:34:59;;;;;;;21.40;18.13;;;6.90;99.30;;;;;;4786101;29;20051;-85
2021/01/12 01:37:26;;;;;;;21.85;17.45;;;6.90;99.30;;;;;;4771450;29;20888;-85
2021/01/12 01:39:53;;;;;;;24.42;18.52;;;6.90;99.30;;;;;;4770005;29;20067;-85
2021/01/12 01:42:19;;;;;;;19.42;16.20;;;6.90;99.30;;;;;;4764241;29;20051;-85
2021/01/12 01:44:46;;;;;;;22.58;16.13;;;6.90;99.30;;;;;;4770953;29;20498;-80
2021/01/12 01:47:12;;;;;;;22.45;17.52;;;6.90;99.30;;;;;;4790442;29;20047;-81
2021/01/12 01:49:39;;;;;;;21.05;16.35;;;6.90;99.50;;;;;;4799383;29;20502;-80
2021/01/12 01:52:05;;;;;;;20.83;16.27;;;6.90;99.30;;;;;;4782886;29;20513;-81
2021/01/12 01:54:32;;;;;;;17.65;15.55;;;6.90;99.30;;;;;;4783723;29;20066;-80
2021/01/12 01:57:00;;;;;;;22.30;17.45;;;6.90;99.30;;;;;;4785472;29;20054;-81
2021/01/12 01:59:26;;;;;;;20.27;16.38;;;6.90;99.30;;;;;;4768691;29;20047;-81
2021/01/12 02:01:53;;;;;;;18.67;15.68;;;6.90;99.30;;;;;;4770379;29;20053;-80
2021/01/12 02:04:39;;;;;;;19.33;14.88;;;6.90;99.30;;;;;;4799995;29;20054;-81
2021/01/12 02:07:08;;;;;;;24.13;16.48;;;6.90;99.40;;;;;;4785183;29;20522;-80
2021/01/12 02:09:53;;;;;;;21.85;16.63;;;6.90;99.40;;;;;;4800571;29;20055;-81
2021/01/12 02:12:28;;;;;;;19.55;14.52;;;6.90;99.40;;;;;;4785660;29;20054;-80
2021/01/12 02:14:56;;;;;;;18.45;15.18;;;6.90;99.40;;;;;;4800705;29;20612;-80
2021/01/12 02:17:29;;;;;;;15.93;13.23;;;6.90;99.40;;;;;;4776558;29;20043;-80
2021/01/12 02:19:56;;;;;;;;;;;6.90;99.40;;;;;;4784602;29;20051;-80
2021/01/12 02:22:25;;;;;;;16.95;14.00;;;7.00;99.50;;;;;;4800795;29;19917;-80
2021/01/12 02:24:53;;;;;;;14.68;12.77;;;6.90;99.40;;;;;;4800729;29;20039;-85
2021/01/12 02:27:22;;;;;;;16.58;12.70;;;6.90;99.50;;;;;;4786832;29;20046;-86
2021/01/12 02:29:49;;;;;;;16.45;12.10;;;6.90;99.70;;;;;;4785345;29;20042;-85
2021/01/12 02:32:21;;;;;;;16.08;12.10;;;7.00;99.50;;;;;;4801185;29;20047;-86
2021/01/12 02:34:49;;;;;;;14.90;12.10;;;7.00;99.50;;;;;;4801465;29;20930;-85
2021/01/12 02:37:19;;;;;;;16.95;11.73;;;7.00;99.50;;;;;;4772313;29;20043;-86
2021/01/12 02:39:56;;;;;;;19.50;13.75;;;7.00;99.50;;;;;;4785864;29;20964;-86
2021/01/12 02:42:23;;;;;;;20.02;12.82;;;7.10;99.60;;;;;;4802388;29;20062;-86
2021/01/12 02:44:50;;;;;;;15.57;11.75;;;7.10;99.60;;;;;;4773479;29;20046;-85
2021/01/12 02:47:16;;;;;;;15.43;9.88;;;7.10;99.60;;;;;;4803001;29;20054;-86
2021/01/12 02:49:43;;;;;;;13.05;9.73;;;7.10;99.60;;;;;;4771566;29;20051;-86
2021/01/12 02:52:13;;;;;;;14.60;9.55;;;7.10;99.60;;;;;;4801291;29;20060;-85
2021/01/12 02:54:41;;;;;;;13.02;10.27;;;7.10;99.60;;;;;;4775211;29;20046;-86
2021/01/12 02:57:08;;;;;;;14.80;9.57;;;7.10;99.60;;;;;;4764885;29;20042;-85
2021/01/12 02:59:35;;;;;;;16.90;10.82;;;7.10;99.60;;;;;;4799173;29;20042;-86
2021/01/12 03:02:02;;;;;;;11.60;8.07;;;7.20;99.60;;;;;;4786612;29;20051;-86
2021/01/12 03:04:28;;;;;;;15.13;9.50;;;7.20;99.70;;;;;;4785780;29;20070;-79
2021/01/12 03:06:55;;;;;;;14.73;9.00;;;7.20;99.70;;;;;;4784394;29;20054;-80
2021/01/12 03:09:21;;;;;;;14.18;9.38;;;7.20;99.70;;;;;;4762649;29;20047;-79
2021/01/12 03:11:52;;;;;;;21.40;11.60;;;7.20;99.70;;;;;;4798016;29;20063;-79
2021/01/12 03:14:18;;;;;;;13.82;10.10;;;7.30;99.70;;;;;;4777772;29;20047;-80
2021/01/12 03:16:45;;;;;;;13.23;8.68;;;7.30;99.80;;;;;;4768759;29;20039;-80
2021/01/12 03:19:12;;;;;;;13.05;8.57;;;7.30;99.70;;;;;;4795609;29;20054;-80
2021/01/12 03:21:39;;;;;;;18.38;9.27;;;7.30;99.80;;;;;;4780768;29;20518;-80
2021/01/12 03:24:06;;;;;;;15.88;9.43;;;7.30;99.80;;;;;;4782643;29;20057;-79
2021/01/12 03:26:33;;;;;;;15.60;10.63;;;7.30;99.70;;;;;;4797683;29;20054;-80
2021/01/12 03:29:00;;;;;;;18.55;9.77;;;7.40;99.80;;;;;;4767270;29;20082;-80
2021/01/12 03:31:26;;;;;;;13.75;9.15;;;7.30;99.70;;;;;;4780896;29;20039;-80
2021/01/12 03:33:53;;;;;;;13.73;9.32;;;7.40;99.80;;;;;;4782437;29;20407;-80
2021/01/12 03:36:20;;;;;;;14.80;9.23;;;7.40;99.80;;;;;;4776165;29;20046;-79
2021/01/12 03:38:47;;;;;;;16.33;9.00;;;7.40;99.80;;;;;;4785657;29;20045;-86
2021/01/12 03:41:13;;;;;;;14.73;9.00;;;7.40;99.80;;;;;;4779833;29;20049;-85
2021/01/12 03:43:40;;;;;;;12.13;8.55;;;7.40;99.80;;;;;;4765937;29;20050;-86
2021/01/12 03:46:06;;;;;;;12.88;8.65;;;7.40;99.80;;;;;;4790694;29;20050;-86
2021/01/12 03:48:33;;;;;;;10.80;7.05;;;7.40;99.80;;;;;;4779823;29;20050;-79
2021/01/12 03:51:00;;;;;;;11.13;6.90;;;7.50;99.80;;;;;;4796993;29;20392;-80
2021/01/12 03:53:26;;;;;;;12.95;7.57;;;7.40;99.80;;;;;;4784315;29;20889;-79
2021/01/12 03:55:53;;;;;;;12.70;7.53;;;7.40;99.80;;;;;;4769312;29;20042;-79
2021/01/12 03:58:22;;;;;;;9.05;6.25;;;7.40;99.80;;;;;;4797222;29;20069;-79
2021/01/12 04:00:49;;;;;;;7.38;5.90;;;7.50;99.90;;;;;;4769706;29;20054;-79
2021/01/12 04:03:15;;;;;;;11.80;6.35;;;7.40;99.80;;;;;;4784867;29;20043;-78
2021/01/12 04:05:42;;;;;;;11.55;6.25;;;7.50;99.90;;;;;;4781075;29;20419;-79
2021/01/12 04:08:10;;;;;;;7.57;4.50;;;7.50;99.90;;;;;;4799159;29;20077;-79
2021/01/12 04:10:37;;;;;;;6.78;4.55;;;7.50;99.90;;;;;;4780932;29;20039;-79
2021/01/12 04:13:04;;;;;;;8.70;5.28;;;7.50;99.90;;;;;;4798549;29;20903;-79
2021/01/12 04:15:31;;;;;;;8.50;4.20;;;7.50;99.90;;;;;;4783908;29;20045;-79
2021/01/12 04:17:58;;;;;;;8.73;4.47;;;7.50;99.90;;;;;;4790874;29;20047;-80
2021/01/12 04:20:24;;;;;;;4.95;3.97;;;7.50;99.90;;;;;;4773992;29;20931;-79
2021/01/12 04:22:51;;;;;;;5.20;3.47;;;7.50;99.90;;;;;;4798591;29;20050;-79
2021/01/12 04:25:19;;;;;;;6.20;3.25;;;7.50;99.90;;;;;;4768244;29;20047;-79
2021/01/12 04:27:46;;;;;;;4.40;2.92;;;7.50;99.90;;;;;;4772982;29;20055;-80
2021/01/12 04:30:13;;;;;;;8.65;4.00;;;7.60;99.90;;;;;;4780457;29;20047;-79
2021/01/12 04:32:40;;;;;;;5.43;3.25;;;7.60;99.90;;;;;;4783263;29;20779;-80
2021/01/12 04:35:07;;;;;;;5.05;3.13;;;7.60;99.90;;;;;;4778043;29;20853;-80
2021/01/12 04:37:33;;;;;;;9.25;4.38;;;7.60;99.90;;;;;;4774340;29;20502;-80
2021/01/12 04:40:00;;;;;;;7.88;4.28;;;7.60;99.90;;;;;;4779390;29;20046;-80
2021/01/12 04:42:32;;;;;;;9.07;3.92;;;7.60;99.90;;;;;;4763160;29;20049;-79
2021/01/12 04:45:03;;;;;;;11.93;4.53;;;7.60;99.90;;;;;;4796742;29;20414;-79
2021/01/12 04:47:30;;;;;;;12.80;5.13;;;7.60;99.90;;;;;;4797710;29;20608;-79
2021/01/12 04:49:56;;;;;;;9.43;4.45;;;7.60;99.90;;;;;;4785943;29;20041;-79
2021/01/12 04:52:23;;;;;;;8.27;4.55;;;7.60;99.90;;;;;;4774531;29;20058;-80
2021/01/12 04:54:52;;;;;;;8.18;4.05;;;7.60;99.90;;;;;;4773415;29;20471;-79
2021/01/12 04:57:19;;;;;;;4.72;3.15;;;7.70;99.90;;;;;;4802780;29;20059;-79
2021/01/12 04:59:45;;;;;;;5.55;2.60;;;7.70;99.90;;;;;;4784381;29;20510;-79
2021/01/12 05:02:15;;;;;;;4.80;3.30;;;7.70;99.90;;;;;;4785529;29;20573;-79
2021/01/12 05:04:42;;;;;;;5.65;2.35;;;7.70;99.90;;;;;;4772113;29;20577;-79
2021/01/12 05:07:09;;;;;;;5.28;3.17;;;7.70;99.90;;;;;;4786199;29;20432;-79
2021/01/12 05:09:39;;;;;;;4.78;2.83;;;7.70;99.90;;;;;;4768143;29;20035;-79
2021/01/12 05:12:06;;;;;;;5.75;3.22;;;7.70;99.90;;;;;;4799645;29;20046;-79
2021/01/12 05:14:37;;;;;;;5.03;2.90;;;7.70;99.90;;;;;;4785987;29;20372;-79
2021/01/12 05:17:04;;;;;;;6.95;4.30;;;7.70;99.90;;;;;;4773097;29;20085;-79
2021/01/12 05:19:34;;;;;;;6.10;4.63;;;7.70;99.90;;;;;;4763020;29;20502;-79
2021/01/12 05:22:05;;;;;;;6.63;3.95;;;7.70;99.90;;;;;;4769200;29;20058;-79
2021/01/12 05:24:42;;;;;;;11.10;4.38;;;7.70;99.90;;;;;;4784421;29;20608;-79
2021/01/12 05:27:10;;;;;;;8.00;4.55;;;7.70;99.90;;;;;;4784782;29;20059;-79
2021/01/12 05:29:38;;;;;;;7.13;4.63;;;7.80;99.90;;;;;;4766814;29;20490;-79
2021/01/12 05:32:10;;;;;;;10.10;6.30;;;7.80;99.90;;;;;;4796725;29;20620;-79
2021/01/12 05:34:40;;;;;;;8.90;5.78;;;7.80;99.90;;;;;;4787541;29;20035;-79
2021/01/12 05:37:09;;;;;;;9.35;5.22;;;7.80;99.90;;;;;;4802047;29;20047;-79
2021/01/12 05:39:40;;;;;;;9.60;5.55;;;7.80;99.90;;;;;;4783376;29;20054;-79
2021/01/12 05:42:08;;;;;;;10.13;5.25;;;7.80;99.90;;;;;;4799174;29;20505;-79
2021/01/12 05:44:37;;;;;;;8.32;6.50;;;7.80;99.90;;;;;;4800285;29;20046;-79
2021/01/12 05:47:05;;;;;;;13.32;6.97;;;7.80;99.90;;;;;;4800257;29;20047;-79
2021/01/12 05:49:32;;;;;;;13.15;7.22;;;7.80;99.90;;;;;;4785421;29;20410;-79
2021/01/12 05:51:58;;;;;;;11.55;6.78;;;7.80;99.90;;;;;;4798525;29;20043;-78
2021/01/12 05:54:33;;;;;;;12.02;7.22;;;7.80;99.90;;;;;;4794700;29;20492;-78
2021/01/12 05:57:07;;;;;;;8.52;5.22;;;7.80;99.90;;;;;;4800255;29;20058;-78
2021/01/12 05:59:36;;;;;;;7.47;4.10;;;7.80;99.90;;;;;;4773887;29;20054;-78
2021/01/12 06:02:10;;;;;;;6.25;3.03;;;7.80;99.90;;;;;;4783378;29;20043;-78
2021/01/12 06:04:37;;;;;;;2.25;1.58;;;7.80;99.90;;;;;;4774167;29;20046;-78
2021/01/12 06:07:05;;;;;;;2.88;1.25;;;7.70;99.90;;;;;;4784670;29;20406;-78
2021/01/12 06:09:31;;;;;;;3.05;1.38;;;7.70;99.90;;;;;;4798248;29;20050;-78
2021/01/12 06:11:58;;;;;;;1.63;0.77;;;7.70;99.90;;;;;;4776664;29;20070;-78
2021/01/12 06:14:29;;;;;;;3.15;0.73;;;7.70;99.90;;;;;;4753237;29;20407;-78
2021/01/12 06:17:00;;;;;;;3.05;1.05;;;7.70;99.90;;;;;;4758820;29;20050;-78
2021/01/12 06:19:28;;;;;;;3.33;0.80;;;7.80;99.90;;;;;;4784707;29;20406;-78
2021/01/12 06:21:55;;;;;;;1.48;0.70;;;7.80;99.90;;;;;;4783420;29;20510;-78
2021/01/12 06:24:31;;;;;;;2.40;1.20;;;7.70;99.90;;;;;;4783137;29;20051;-78
2021/01/12 06:26:58;;;;;;;5.32;1.83;;;7.70;99.90;;;;;;4800001;29;20055;-79
2021/01/12 06:29:29;;;;;;;5.85;1.70;;;7.70;99.90;;;;;;4798591;29;20051;-79
2021/01/12 06:31:57;;;;;;;5.13;2.25;;;7.70;99.90;;;;;;4782915;29;20758;-79
2021/01/12 06:34:24;;;;;;;4.65;2.30;;;7.80;99.90;;;;;;4798863;29;20069;-79
2021/01/12 06:36:53;;;;;;;4.90;1.90;;;7.80;99.90;;;;;;4814266;29;20422;-79
2021/01/12 06:39:27;;;;;;;3.33;2.10;;;7.80;99.90;;;;;;4797724;29;20058;-78
2021/01/12 06:41:54;;;;;;;7.15;4.30;;;7.80;99.90;;;;;;4797489;29;20054;-78
2021/01/12 06:44:25;;;;;;;4.75;3.28;;;7.80;99.90;;;;;;4780826;29;20055;-78
2021/01/12 06:46:55;;;;;;;5.95;3.65;;;7.80;99.90;;;;;;4796105;29;20574;-79
2021/01/12 06:49:27;;;;;;;6.72;4.28;;;7.80;99.90;;;;;;4797859;29;20047;-79
2021/01/12 06:51:59;;;;;;;6.88;4.38;;;7.80;99.90;;;;;;4800071;29;20039;-81
2021/01/12 06:54:37;;;;;;;10.27;3.95;;;7.80;99.90;;;;;;4798676;29;20047;-83
2021/01/12 06:57:11;;;;;;;6.53;3.35;;;7.80;99.90;;;;;;4784476;29;20058;-83
2021/01/12 06:59:54;;;;;;;7.78;3.28;;;7.80;99.90;;;;;;4797529;29;20027;-79
2021/01/12 07:02:24;;;;;;;6.75;3.85;;;7.80;99.90;;;;;;4800196;29;20042;-87
2021/01/12 07:05:09;;;;;;;5.35;3.08;;;7.80;99.90;;;;;;4776497;29;20047;-87
2021/01/12 07:07:43;;;;;;;6.47;2.67;;;7.80;99.90;;;;;;4784457;29;20072;-87
2021/01/12 07:10:15;;;;;;;8.80;5.13;;;7.80;99.90;;;;;;4767637;29;20046;-87
2021/01/12 07:12:42;;;;;;;9.80;5.45;;;7.70;99.90;;;;;;4779985;29;20051;-87
2021/01/12 07:15:20;;;;;;;8.68;4.18;;;7.70;99.90;;;;;;4765322;29;20047;-86
2021/01/12 07:17:52;;;;;;;8.02;3.95;;;7.70;99.90;;;;;;4784921;29;20059;-84
2021/01/12 07:20:27;;;;;;;11.57;4.43;;;7.70;99.90;;;;;;4782366;29;20510;-86
2021/01/12 07:23:05;;;;;;;10.02;4.18;;;7.70;99.90;;;;;;4784723;29;20043;-88
2021/01/12 07:25:34;;;;;;;6.30;3.30;;;7.70;99.90;;;;;;4797025;29;20043;-83
2021/01/12 07:28:09;;;;;;;6.32;2.90;;;7.70;99.90;;;;;;4784537;29;20050;-83
2021/01/12 07:30:41;;;;;;;5.57;2.00;;;7.60;99.90;;;;;;4786293;29;20051;-84
2021/01/12 07:33:28;;;;;;;6.53;1.55;;;7.60;99.90;;;;;;4782142;29;20050;-85
2021/01/12 07:35:57;;;;;;;4.97;1.55;;;7.60;99.90;;;;;;4765136;29;20043;-86
2021/01/12 07:38:27;;;;;;;4.82;2.22;;;7.60;99.90;;;;;;4783195;29;20403;-86
2021/01/12 07:41:01;;;;;;;5.55;2.67;;;7.50;99.90;;;;;;4782596;29;20055;-85
2021/01/12 07:43:28;;;;;;;6.82;3.25;;;7.50;99.90;;;;;;4784255;29;20402;-82
2021/01/12 07:46:01;;;;;;;5.60;2.60;;;7.50;99.90;;;;;;4784265;29;20070;-83
2021/01/12 07:48:28;;;;;;;7.00;3.03;;;7.50;99.90;;;;;;4774490;29;20924;-84
2021/01/12 07:51:00;;;;;;;7.00;3.40;;;7.50;99.90;;;;;;4759465;29;20066;-82
2021/01/12 07:53:31;;;;;;;9.53;5.50;;;7.50;99.90;;;;;;4800680;29;20047;-84
2021/01/12 07:55:59;;;;;;;9.40;6.03;;;7.50;99.90;;;;;;4784167;29;20047;-84
2021/01/12 07:58:29;;;;;;;9.65;5.32;;;7.50;99.90;;;;;;4781017;29;20042;-88
2021/01/12 08:00:55;;;;;;;9.57;5.85;;;7.50;99.90;;;;;;4781440;29;20058;-83
2021/01/12 08:03:27;;;;;;;13.43;7.50;;;7.50;99.90;;;;;;4783822;29;20039;-84
2021/01/12 08:06:01;;;;;;;11.27;6.85;;;7.50;99.90;;;;;;4768106;29;20130;-84
2021/01/12 08:08:28;;;;;;;10.73;6.97;;;7.50;99.90;;;;;;4798876;29;20047;-81
2021/01/12 08:10:54;;;;;;;15.05;6.88;;;7.50;99.90;;;;;;4782098;29;20888;-82
2021/01/12 08:13:23;;;;;;;9.30;5.70;;;7.50;99.90;;;;;;4768085;29;20055;-81
2021/01/12 08:15:50;;;;;;;9.43;5.90;;;7.50;99.90;;;;;;4784311;29;20043;-79
2021/01/12 08:18:18;;;;;;;11.75;6.28;;;7.50;99.90;;;;;;4796303;29;20074;-80
2021/01/12 08:20:54;;;;;;;8.45;5.43;;;7.40;99.90;;;;;;4779924;29;20041;-80
2021/01/12 08:23:21;;;;;;;9.90;6.07;;;7.50;99.90;;;;;;4799260;29;20490;-80
2021/01/12 08:25:48;;;;;;;10.82;5.85;;;7.40;99.90;;;;;;4798040;29;20062;-82
2021/01/12 08:28:15;;;;;;;12.35;6.97;;;7.50;99.90;;;;;;4762777;29;20062;-80
2021/01/12 08:30:43;;;;;;;8.27;5.35;;;7.50;99.90;;;;;;4796003;29;20058;-82
2021/01/12 08:33:25;;;;;;;14.30;9.43;;;7.40;99.90;;;;;;4798045;29;20053;-79
2021/01/12 08:35:53;;;;;;;;;;;7.40;99.90;;;;;;4771579;29;20093;-84
2021/01/12 08:38:22;;;;;;;7.43;4.47;;;7.40;99.90;;;;;;4782631;29;19917;-83
2021/01/12 08:40:51;;;;;;;6.05;3.20;;;7.40;99.90;;;;;;4795439;29;20055;-81
2021/01/12 08:43:19;;;;;;;4.13;1.30;;;7.40;99.90;;;;;;4782697;29;20058;-85
2021/01/12 08:45:46;;;;;;;2.47;1.10;;;7.30;99.90;;;;;;4797727;29;20058;-81
2021/01/12 08:48:17;;;;;;;3.90;0.80;;;7.30;99.90;;;;;;4767967;29;20047;-81
2021/01/12 08:50:46;;;;;;;1.88;0.60;;;7.20;99.90;;;;;;4781332;29;20047;-81
2021/01/12 08:53:29;;;;;;;6.35;1.55;;;7.10;99.90;;;;;;4798169;29;20419;-81
2021/01/12 08:56:05;;;;;;;;;;;7.10;99.80;;;;;;4797047;29;20046;-81
2021/01/12 08:58:33;;;;;;;4.68;1.40;;;6.90;99.70;;;;;;4780888;29;20312;-81
2021/01/12 09:01:00;;;;;;;4.35;1.15;;;6.80;99.70;;;;;;4781445;29;20498;-81
2021/01/12 09:03:30;;;;;;;6.93;1.48;;;6.70;99.70;;;;;;4797017;29;20067;-81
2021/01/12 09:05:57;;;;;;;2.78;0.75;;;6.70;99.80;;;;;;4776348;29;20046;-81
2021/01/12 09:08:25;;;;;;;4.97;1.10;;;6.60;99.80;;;;;;4761795;29;20047;-82
2021/01/12 09:10:52;;;;;;;3.03;0.80;;;6.60;99.90;;;;;;4795453;29;20055;-83
2021/01/12 09:13:29;;;;;;;3.65;0.90;;;6.60;99.90;;;;;;4782591;29;20059;-84
2021/01/12 09:15:55;;;;;;;3.25;0.70;;;6.60;99.90;;;;;;4777919;29;20066;-83
2021/01/12 09:18:26;;;;;;;7.45;0.80;;;6.80;99.90;;;;;;4765648;29;20049;-82
2021/01/12 09:20:53;;;;;;;3.38;0.55;;;6.80;99.80;;;;;;4795761;29;20047;-83
2021/01/12 09:23:20;;;;;;;2.97;0.57;;;6.80;99.60;;;;;;4783049;29;20050;-83
2021/01/12 09:26:00;;;;;;;2.15;0.40;;;6.80;99.70;;;;;;4783075;29;20050;-83
2021/01/12 09:28:32;;;;;;;3.55;0.50;;;6.90;99.80;;;;;;4792528;29;20506;-82
2021/01/12 09:31:07;;;;;;;4.57;0.63;;;6.90;99.80;;;;;;4810690;29;20031;-83
2021/01/12 09:33:35;;;;;;;2.85;0.65;;;7.00;99.70;;;;;;4792049;29;20491;-80
2021/01/12 09:36:23;;;;;;;5.03;0.73;;;7.00;99.70;;;;;;4784926;29;20059;-84
2021/01/12 09:38:53;;;;;;;3.60;0.68;;;6.90;99.60;;;;;;4799874;29;20388;-82
2021/01/12 09:41:25;;;;;;;6.53;0.70;;;6.90;99.50;;;;;;4769409;29;20043;-82
2021/01/12 09:43:52;;;;;;;4.45;0.68;;;6.80;99.50;;;;;;4770153;29;20490;-80
2021/01/12 09:46:22;;;;;;;4.03;0.55;;;6.80;99.50;;;;;;4775788;29;20047;-85
2021/01/12 09:48:50;;;;;;;2.35;0.60;;;6.70;99.40;;;;;;4797982;29;20061;-82
2021/01/12 09:51:17;;;;;;;3.90;0.50;;;6.70;99.40;;;;;;4783926;29;20134;-81
2021/01/12 09:53:49;;;;;;;3.97;0.60;;;6.70;99.50;;;;;;4799490;29;20042;-81
2021/01/12 09:56:20;;;;;;;2.78;0.50;;;6.70;99.60;;;;;;4784845;29;20054;-82
2021/01/12 09:58:49;;;;;;;5.15;0.73;;;6.80;99.70;;;;;;4761204;29;20054;-82
2021/01/12 10:01:17;;;;;;;4.32;0.60;;;6.80;99.60;;;;;;4772415;29;20050;-82
2021/01/12 10:03:44;;;;;;;5.75;0.82;;;6.80;99.50;;;;;;4777160;29;20608;-82
2021/01/12 10:06:18;;;;;;;3.13;0.60;;;6.80;99.50;;;;;;4800186;29;20062;-82
2021/01/12 10:08:47;;;;;;;3.03;0.50;;;6.80;99.50;;;;;;4784568;29;20049;-83
2021/01/12 10:11:14;;;;;;;7.82;0.60;;;6.80;99.50;;;;;;4783798;29;20065;-83
2021/01/12 10:13:45;;;;;;;6.97;0.80;;;6.80;99.50;;;;;;4800615;29;20046;-83
2021/01/12 10:16:22;;;;;;;7.30;0.50;;;6.80;99.50;;;;;;4799158;29;20047;-85
2021/01/12 10:18:49;;;;;;;6.05;0.50;;;6.80;99.50;;;;;;4784218;29;20034;-88
2021/01/12 10:21:40;;;;;;;2.00;0.43;;;6.80;99.60;;;;;;4784278;29;20395;-85
2021/01/12 10:24:07;;;;;;;5.82;0.40;;;6.90;99.60;;;;;;4800688;29;20065;-85
2021/01/12 10:26:33;;;;;;;4.18;0.38;;;7.00;99.60;;;;;;4801396;29;20051;-85
2021/01/12 10:29:01;;;;;;;6.55;0.50;;;7.00;99.40;;;;;;4769012;29;20051;-85
2021/01/12 10:31:29;;;;;;;2.97;0.40;;;6.90;99.30;;;;;;4798508;29;20047;-85
2021/01/12 10:33:56;;;;;;;3.72;0.30;;;6.90;99.10;;;;;;4763467;29;20062;-84
2021/01/12 10:36:22;;;;;;;4.50;0.30;;;6.90;99.20;;;;;;4788352;29;20051;-84
2021/01/12 10:38:49;;;;;;;2.63;0.45;;;6.80;99.10;;;;;;4768657;29;20825;-84
2021/01/12 10:41:16;;;;;;;3.72;0.32;;;6.80;99.00;;;;;;4781711;29;20038;-83
2021/01/12 10:43:43;;;;;;;4.30;0.30;;;6.70;98.90;;;;;;4784831;29;20042;-83
2021/01/12 10:46:10;;;;;;;2.95;0.43;;;6.70;98.80;;;;;;4784403;29;20146;-84
2021/01/12 10:48:39;;;;;;;0.75;0.10;;;6.50;98.20;;;;;;4784554;29;20050;-82
2021/01/12 10:51:05;;;;;;;3.05;0.10;;;6.30;98.00;;;;;;4798383;29;20051;-83
2021/01/12 10:53:32;;;;;;;3.90;0.20;;;6.20;98.20;;;;;;4764152;29;20053;-83
2021/01/12 10:56:01;;;;;;;4.13;0.55;;;6.20;98.60;;;;;;4775239;29;20039;-83
2021/01/12 10:58:28;;;;;;;4.93;0.20;;;6.20;98.70;;;;;;4802927;29;20043;-83
2021/01/12 11:00:55;;;;;;;2.88;0.20;;;6.20;98.50;;;;;;4767000;29;20043;-83
2021/01/12 11:03:23;;;;;;;3.38;0.20;;;6.10;98.60;;;;;;4783979;29;20054;-83
2021/01/12 11:05:54;;;;;;;2.80;0.13;;;6.20;98.60;;;;;;4769925;29;20054;-83
2021/01/12 11:08:21;;;;;;;3.17;0.20;;;6.20;98.70;;;;;;4798091;29;20042;-82
2021/01/12 11:10:47;;;;;;;3.33;0.20;;;6.40;98.70;;;;;;4799044;29;20063;-83
2021/01/12 11:13:14;;;;;;;4.70;0.20;;;6.40;98.40;;;;;;4783814;29;20043;-83
2021/01/12 11:15:44;;;;;;;5.60;0.20;;;6.40;98.20;;;;;;4798904;29;20423;-85
2021/01/12 11:18:11;;;;;;;4.72;0.20;;;6.30;98.10;;;;;;4783014;29;20042;-84
2021/01/12 11:20:38;;;;;;;2.58;0.25;;;6.20;98.20;;;;;;4788717;29;20570;-84
2021/01/12 11:23:05;;;;;;;4.00;0.47;;;6.20;98.30;;;;;;4784308;29;20045;-84
2021/01/12 11:25:32;;;;;;;5.07;0.43;;;6.10;98.30;;;;;;4775594;29;20069;-84
2021/01/12 11:27:58;;;;;;;3.55;0.38;;;6.10;98.20;;;;;;4784008;29;20495;-80
2021/01/12 11:30:25;;;;;;;4.78;0.60;;;6.10;98.20;;;;;;4776441;29;20043;-84
2021/01/12 11:32:52;;;;;;;4.53;0.30;;;6.10;98.20;;;;;;4775610;29;20573;-85
2021/01/12 11:35:19;;;;;;;5.68;0.73;;;6.10;98.00;;;;;;4783029;29;20122;-84
2021/01/12 11:37:48;;;;;;;4.95;0.45;;;6.10;98.00;;;;;;4783675;29;20541;-87
2021/01/12 11:40:15;;;;;;;5.03;0.50;;;6.10;98.00;;;;;;4780768;29;20121;-84
2021/01/12 11:42:42;;;;;;;6.53;1.15;;;6.10;97.90;;;;;;4798413;29;20058;-83
2021/01/12 11:45:09;;;;;;;6.15;0.32;;;6.10;97.70;;;;;;4783431;29;20069;-83
2021/01/12 11:47:36;;;;;;;10.15;0.50;;;6.10;97.70;;;;;;4768443;29;20051;-82
2021/01/12 11:50:08;;;;;;;7.28;0.52;;;6.10;97.70;;;;;;4772098;29;21382;-83
2021/01/12 11:52:35;;;;;;;4.97;0.20;;;6.10;97.40;;;;;;4768704;29;20854;-81
2021/01/12 11:55:04;;;;;;;2.58;0.20;;;6.20;96.90;;;;;;4789056;29;20055;-84
2021/01/12 11:57:31;;;;;;;5.47;0.65;;;6.20;96.90;;;;;;4783021;29;20035;-83
2021/01/12 11:59:58;;;;;;;4.07;0.30;;;6.20;96.30;;;;;;4781794;29;20042;-84
2021/01/12 12:02:24;;;;;;;6.82;0.77;;;6.20;96.40;;;;;;4813542;29;20050;-83
2021/01/12 12:04:51;;;;;;;6.43;0.57;;;6.30;96.50;;;;;;4783715;29;20047;-84
2021/01/12 12:07:19;;;;;;;4.72;0.88;;;6.30;96.40;;;;;;4779422;29;20069;-84
2021/01/12 12:09:48;;;;;;;3.90;0.45;;;6.30;96.30;;;;;;4759828;29;20054;-84
2021/01/12 12:12:15;;;;;;;4.53;0.40;;;6.30;96.20;;;;;;4796996;29;20521;-84
2021/01/12 12:14:42;;;;;;;3.88;0.28;;;6.20;96.00;;;;;;4768046;29;20490;-84
2021/01/12 12:17:09;;;;;;;6.65;0.52;;;6.20;96.20;;;;;;4783106;29;20815;-81
2021/01/12 12:19:36;;;;;;;8.52;0.75;;;6.10;96.00;;;;;;4797805;29;20050;-84
2021/01/12 12:22:05;;;;;;;9.50;0.47;;;6.10;96.10;;;;;;4796589;29;20035;-81
2021/01/12 12:24:32;;;;;;;8.60;0.43;;;6.20;96.10;;;;;;4780432;29;20054;-82
2021/01/12 12:27:00;;;;;;;5.05;0.40;;;6.20;95.90;;;;;;4761630;30;20400;-82
2021/01/12 12:29:29;;;;;;;5.18;0.35;;;6.10;95.30;;;;;;4793864;29;20050;-82
2021/01/12 12:32:05;;;;;;;5.95;0.40;;;6.10;95.20;;;;;;4781119;29;20083;-82
2021/01/12 12:34:35;;;;;;;4.22;0.40;;;6.00;94.40;;;;;;4795885;29;20499;-82
2021/01/12 12:37:01;;;;;;;7.03;0.40;;;5.90;94.30;;;;;;4765957;29;20070;-82
2021/01/12 12:39:28;;;;;;;3.20;0.50;;;5.80;93.90;;;;;;4781489;29;20043;-81
2021/01/12 12:41:54;;;;;;;6.82;0.38;;;5.80;93.50;;;;;;4766699;29;20047;-81
2021/01/12 12:44:21;;;;;;;4.75;0.40;;;5.70;93.70;;;;;;4783113;29;20900;-81
2021/01/12 12:46:48;;;;;;;7.35;0.38;;;5.70;93.80;;;;;;4767898;29;20054;-81
2021/01/12 12:49:14;;;;;;;5.88;0.60;;;5.70;93.60;;;;;;4766592;29;20066;-81
2021/01/12 12:51:41;;;;;;;6.55;0.75;;;5.60;93.40;;;;;;4782100;29;20069;-81
2021/01/12 12:54:08;;;;;;;11.70;0.50;;;5.70;93.20;;;;;;4785573;29;20051;-81
2021/01/12 12:56:35;;;;;;;6.68;0.65;;;5.60;93.30;;;;;;4760779;29;20418;-82
2021/01/12 12:59:01;;;;;;;7.78;0.35;;;5.60;93.40;;;;;;4767640;29;20047;-81